KGAI

Montgomery County Airpark

Gaithersburg, Maryland, USA
METAR KGAI 191056Z AUTO 00000KT 10SM CLR M06/M08 A3018 RMK AO2 SLP252 T10611078 FZRANO
Observed Flight Rules
Dec-19 @ 10:56 UTC (43 minutes ago) Visual Flight Rules
Visibility Clouds
10 miles
  • Clear skies
Temperatures Readings
Current -6°C / 21°F
Dewpoint -8°C / 18°F
Humidity 86%
Altimeter 30.18" Hg
Pressure 1025.2 hPa
Elevation 165
METAR KGAI 191056Z AUTO 00000KT 10SM CLR M06/M08 A3018 RMK AO2 SLP252 T10611078 FZRANO
Observed Flight Rules
Dec-19 @ 10:56 UTC
(43 minutes ago)
VFR
Clouds
  • Clear skies
Temperature Dewpoint
-6°C / 21°F -8°C / 18°F
Humidity Altimeter Pressure
86% 30.18" Hg 1025.2 hPa